sensor_id;sensor_type;location;lat;lon;timestamp;pressure;altitude;pressure_sealevel;temperature;humidity
51452;BME280;37521;52.020;-1.740;2023-12-07T00:01:56;99599.28;;;1.86;100.00
51452;BME280;37521;52.020;-1.740;2023-12-07T00:04:26;99600.13;;;1.88;100.00
51452;BME280;37521;52.020;-1.740;2023-12-07T00:06:54;99597.50;;;1.90;100.00
51452;BME280;37521;52.020;-1.740;2023-12-07T00:09:23;99589.63;;;1.95;100.00
51452;BME280;37521;52.020;-1.740;2023-12-07T00:11:52;99589.53;;;1.98;100.00
51452;BME280;37521;52.020;-1.740;2023-12-07T00:14:21;99587.81;;;1.98;100.00
51452;BME280;37521;52.020;-1.740;2023-12-07T00:16:49;99583.44;;;1.99;100.00
51452;BME280;37521;52.020;-1.740;2023-12-07T00:19:18;99592.97;;;2.01;100.00
51452;BME280;37521;52.020;-1.740;2023-12-07T00:21:47;99581.69;;;2.01;100.00
51452;BME280;37521;52.020;-1.740;2023-12-07T00:24:16;99570.34;;;2.03;100.00
51452;BME280;37521;52.020;-1.740;2023-12-07T00:26:44;99567.78;;;2.02;100.00
51452;BME280;37521;52.020;-1.740;2023-12-07T00:29:13;99561.75;;;1.98;100.00
51452;BME280;37521;52.020;-1.740;2023-12-07T00:31:42;99558.34;;;1.96;100.00
51452;BME280;37521;52.020;-1.740;2023-12-07T00:34:11;99564.44;;;1.94;100.00
51452;BME280;37521;52.020;-1.740;2023-12-07T00:36:40;99560.06;;;1.97;100.00
51452;BME280;37521;52.020;-1.740;2023-12-07T00:39:10;99561.75;;;1.98;100.00
51452;BME280;37521;52.020;-1.740;2023-12-07T00:41:39;99547.84;;;1.99;100.00
51452;BME280;37521;52.020;-1.740;2023-12-07T00:44:08;99546.09;;;2.00;100.00
51452;BME280;37521;52.020;-1.740;2023-12-07T00:46:36;99544.34;;;2.00;100.00
51452;BME280;37521;52.020;-1.740;2023-12-07T00:49:05;99536.53;;;2.02;100.00
51452;BME280;37521;52.020;-1.740;2023-12-07T00:51:34;99542.59;;;2.02;100.00
51452;BME280;37521;52.020;-1.740;2023-12-07T00:54:03;99536.53;;;2.02;100.00
51452;BME280;37521;52.020;-1.740;2023-12-07T00:56:33;99527.03;;;1.99;100.00
51452;BME280;37521;52.020;-1.740;2023-12-07T00:59:02;99527.91;;;1.98;100.00
51452;BME280;37521;52.020;-1.740;2023-12-07T01:01:31;99532.22;;;1.99;100.00
51452;BME280;37521;52.020;-1.740;2023-12-07T01:04:00;99529.59;;;2.02;100.00
51452;BME280;37521;52.020;-1.740;2023-12-07T01:06:28;99523.44;;;2.05;100.00
51452;BME280;37521;52.020;-1.740;2023-12-07T01:08:57;99520.00;;;2.04;100.00
51452;BME280;37521;52.020;-1.740;2023-12-07T01:11:26;99519.16;;;2.02;100.00
51452;BME280;37521;52.020;-1.740;2023-12-07T01:13:56;99514.00;;;2.01;100.00
51452;BME280;37521;52.020;-1.740;2023-12-07T01:16:25;99514.84;;;2.01;100.00
51452;BME280;37521;52.020;-1.740;2023-12-07T01:18:53;99508.72;;;2.04;100.00
51452;BME280;37521;52.020;-1.740;2023-12-07T01:21:23;99511.34;;;2.02;100.00
51452;BME280;37521;52.020;-1.740;2023-12-07T01:23:51;99503.59;;;2.01;100.00
51452;BME280;37521;52.020;-1.740;2023-12-07T01:26:36;99499.16;;;2.04;100.00
51452;BME280;37521;52.020;-1.740;2023-12-07T01:29:06;99494.81;;;2.05;100.00
51452;BME280;37521;52.020;-1.740;2023-12-07T01:31:34;99500.84;;;2.07;100.00
51452;BME280;37521;52.020;-1.740;2023-12-07T01:34:03;99483.50;;;2.07;100.00
51452;BME280;37521;52.020;-1.740;2023-12-07T01:36:32;99488.63;;;2.10;100.00
51452;BME280;37521;52.020;-1.740;2023-12-07T01:39:01;99476.41;;;2.12;100.00
51452;BME280;37521;52.020;-1.740;2023-12-07T01:41:30;99472.06;;;2.14;100.00
51452;BME280;37521;52.020;-1.740;2023-12-07T01:43:58;99471.09;;;2.18;100.00
51452;BME280;37521;52.020;-1.740;2023-12-07T01:46:29;99460.63;;;2.22;100.00
51452;BME280;37521;52.020;-1.740;2023-12-07T01:48:58;99458.84;;;2.24;100.00
51452;BME280;37521;52.020;-1.740;2023-12-07T01:51:27;99452.69;;;2.28;100.00
51452;BME280;37521;52.020;-1.740;2023-12-07T01:53:56;99451.69;;;2.32;100.00
51452;BME280;37521;52.020;-1.740;2023-12-07T01:56:25;99451.56;;;2.38;100.00
51452;BME280;37521;52.020;-1.740;2023-12-07T01:58:54;99441.09;;;2.41;100.00
51452;BME280;37521;52.020;-1.740;2023-12-07T02:01:23;99439.31;;;2.43;100.00
51452;BME280;37521;52.020;-1.740;2023-12-07T02:03:53;99427.03;;;2.48;100.00
51452;BME280;37521;52.020;-1.740;2023-12-07T02:06:22;99420.88;;;2.51;100.00
51452;BME280;37521;52.020;-1.740;2023-12-07T02:08:51;99423.41;;;2.55;100.00
51452;BME280;37521;52.020;-1.740;2023-12-07T02:11:20;99411.09;;;2.60;100.00
51452;BME280;37521;52.020;-1.740;2023-12-07T02:13:48;99424.88;;;2.65;100.00
51452;BME280;37521;52.020;-1.740;2023-12-07T02:16:23;99431.75;;;2.69;100.00
51452;BME280;37521;52.020;-1.740;2023-12-07T02:19:03;99429.13;;;2.69;100.00
51452;BME280;37521;52.020;-1.740;2023-12-07T02:21:42;99424.72;;;2.71;100.00
51452;BME280;37521;52.020;-1.740;2023-12-07T02:24:18;99412.50;;;2.73;100.00
51452;BME280;37521;52.020;-1.740;2023-12-07T02:26:50;99418.63;;;2.72;100.00
51452;BME280;37521;52.020;-1.740;2023-12-07T02:29:19;99408.91;;;2.79;100.00
51452;BME280;37521;52.020;-1.740;2023-12-07T02:31:48;99408.00;;;2.82;100.00
51452;BME280;37521;52.020;-1.740;2023-12-07T02:34:17;99397.47;;;2.85;100.00
51452;BME280;37521;52.020;-1.740;2023-12-07T02:36:48;99402.66;;;2.86;100.00
51452;BME280;37521;52.020;-1.740;2023-12-07T02:39:18;99388.00;;;2.81;100.00
51452;BME280;37521;52.020;-1.740;2023-12-07T02:41:50;99387.25;;;2.77;100.00
51452;BME280;37521;52.020;-1.740;2023-12-07T02:44:20;99395.03;;;2.79;100.00
51452;BME280;37521;52.020;-1.740;2023-12-07T02:46:49;99377.66;;;2.78;100.00
51452;BME280;37521;52.020;-1.740;2023-12-07T02:49:18;99379.34;;;2.80;100.00
51452;BME280;37521;52.020;-1.740;2023-12-07T02:51:47;99383.63;;;2.83;100.00
51452;BME280;37521;52.020;-1.740;2023-12-07T02:54:16;99378.38;;;2.84;100.00
51452;BME280;37521;52.020;-1.740;2023-12-07T02:56:44;99380.88;;;2.87;100.00
51452;BME280;37521;52.020;-1.740;2023-12-07T02:59:14;99384.34;;;2.89;100.00
51452;BME280;37521;52.020;-1.740;2023-12-07T03:01:43;99372.22;;;2.87;100.00
51452;BME280;37521;52.020;-1.740;2023-12-07T03:04:12;99362.69;;;2.86;100.00
51452;BME280;37521;52.020;-1.740;2023-12-07T03:06:41;99356.66;;;2.84;100.00
51452;BME280;37521;52.020;-1.740;2023-12-07T03:09:09;99358.47;;;2.82;100.00
51452;BME280;37521;52.020;-1.740;2023-12-07T03:11:38;99353.31;;;2.79;100.00
51452;BME280;37521;52.020;-1.740;2023-12-07T03:14:07;99344.59;;;2.80;100.00
51452;BME280;37521;52.020;-1.740;2023-12-07T03:16:38;99335.91;;;2.79;100.00
51452;BME280;37521;52.020;-1.740;2023-12-07T03:19:07;99337.75;;;2.76;100.00
51452;BME280;37521;52.020;-1.740;2023-12-07T03:21:38;99342.97;;;2.76;100.00
51452;BME280;37521;52.020;-1.740;2023-12-07T03:24:08;99348.09;;;2.79;100.00
51452;BME280;37521;52.020;-1.740;2023-12-07T03:26:37;99334.25;;;2.77;100.00
51452;BME280;37521;52.020;-1.740;2023-12-07T03:29:06;99331.69;;;2.75;100.00
51452;BME280;37521;52.020;-1.740;2023-12-07T03:31:34;99329.94;;;2.76;100.00
51452;BME280;37521;52.020;-1.740;2023-12-07T03:34:05;99327.34;;;2.76;100.00
51452;BME280;37521;52.020;-1.740;2023-12-07T03:36:33;99324.72;;;2.76;100.00
51452;BME280;37521;52.020;-1.740;2023-12-07T03:39:02;99312.53;;;2.76;100.00
51452;BME280;37521;52.020;-1.740;2023-12-07T03:41:32;99315.09;;;2.78;100.00
51452;BME280;37521;52.020;-1.740;2023-12-07T03:44:00;99309.09;;;2.76;100.00
51452;BME280;37521;52.020;-1.740;2023-12-07T03:46:29;99295.22;;;2.73;100.00
51452;BME280;37521;52.020;-1.740;2023-12-07T03:48:58;99288.25;;;2.74;100.00
51452;BME280;37521;52.020;-1.740;2023-12-07T03:51:30;99290.00;;;2.73;100.00
51452;BME280;37521;52.020;-1.740;2023-12-07T03:53:59;99291.75;;;2.75;100.00
51452;BME280;37521;52.020;-1.740;2023-12-07T03:56:28;99288.25;;;2.74;100.00
51452;BME280;37521;52.020;-1.740;2023-12-07T03:58:57;99291.75;;;2.73;100.00
51452;BME280;37521;52.020;-1.740;2023-12-07T04:01:27;99296.13;;;2.72;100.00
51452;BME280;37521;52.020;-1.740;2023-12-07T04:03:57;99277.06;;;2.70;100.00
51452;BME280;37521;52.020;-1.740;2023-12-07T04:06:29;99289.19;;;2.71;100.00
51452;BME280;37521;52.020;-1.740;2023-12-07T04:08:58;99277.88;;;2.72;100.00
51452;BME280;37521;52.020;-1.740;2023-12-07T04:11:26;99269.16;;;2.73;100.00
51452;BME280;37521;52.020;-1.740;2023-12-07T04:13:55;99257.00;;;2.72;100.00
51452;BME280;37521;52.020;-1.740;2023-12-07T04:16:24;99263.09;;;2.73;100.00
51452;BME280;37521;52.020;-1.740;2023-12-07T04:18:53;99259.63;;;2.72;100.00
51452;BME280;37521;52.020;-1.740;2023-12-07T04:21:22;99263.97;;;2.72;100.00
51452;BME280;37521;52.020;-1.740;2023-12-07T04:23:52;99254.34;;;2.74;100.00
51452;BME280;37521;52.020;-1.740;2023-12-07T04:26:20;99262.19;;;2.74;100.00
51452;BME280;37521;52.020;-1.740;2023-12-07T04:28:49;99251.75;;;2.76;100.00
51452;BME280;37521;52.020;-1.740;2023-12-07T04:31:18;99249.09;;;2.77;100.00
51452;BME280;37521;52.020;-1.740;2023-12-07T04:33:46;99245.53;;;2.80;100.00
51452;BME280;37521;52.020;-1.740;2023-12-07T04:36:15;99242.00;;;2.81;100.00
51452;BME280;37521;52.020;-1.740;2023-12-07T04:38:44;99225.53;;;2.80;100.00
51452;BME280;37521;52.020;-1.740;2023-12-07T04:41:14;99230.78;;;2.79;100.00
51452;BME280;37521;52.020;-1.740;2023-12-07T04:43:43;99216.03;;;2.78;100.00
51452;BME280;37521;52.020;-1.740;2023-12-07T04:46:12;99208.22;;;2.78;100.00
51452;BME280;37521;52.020;-1.740;2023-12-07T04:48:42;99209.88;;;2.80;100.00
51452;BME280;37521;52.020;-1.740;2023-12-07T04:51:11;99209.81;;;2.83;100.00
51452;BME280;37521;52.020;-1.740;2023-12-07T04:53:40;99204.56;;;2.85;100.00
51452;BME280;37521;52.020;-1.740;2023-12-07T04:56:09;99199.34;;;2.85;100.00
51452;BME280;37521;52.020;-1.740;2023-12-07T04:58:39;99195.81;;;2.86;100.00
51452;BME280;37521;52.020;-1.740;2023-12-07T05:01:08;99185.34;;;2.87;100.00
51452;BME280;37521;52.020;-1.740;2023-12-07T05:03:36;99180.13;;;2.89;100.00
51452;BME280;37521;52.020;-1.740;2023-12-07T05:06:05;99187.03;;;2.90;100.00
51452;BME280;37521;52.020;-1.740;2023-12-07T05:08:34;99184.44;;;2.90;100.00
51452;BME280;37521;52.020;-1.740;2023-12-07T05:11:03;99183.47;;;2.92;100.00
51452;BME280;37521;52.020;-1.740;2023-12-07T05:13:32;99183.41;;;2.95;100.00
51452;BME280;37521;52.020;-1.740;2023-12-07T05:16:04;99187.59;;;2.99;100.00
51452;BME280;37521;52.020;-1.740;2023-12-07T05:18:33;99187.59;;;3.01;100.00
51452;BME280;37521;52.020;-1.740;2023-12-07T05:21:02;99188.47;;;3.00;100.00
51452;BME280;37521;52.020;-1.740;2023-12-07T05:23:31;99184.06;;;3.02;100.00
51452;BME280;37521;52.020;-1.740;2023-12-07T05:26:05;99177.97;;;3.03;100.00
51452;BME280;37521;52.020;-1.740;2023-12-07T05:28:36;99184.81;;;3.06;100.00
51452;BME280;37521;52.020;-1.740;2023-12-07T05:31:07;99179.53;;;3.09;100.00
51452;BME280;37521;52.020;-1.740;2023-12-07T05:33:35;99176.88;;;3.10;100.00
51452;BME280;37521;52.020;-1.740;2023-12-07T05:36:05;99179.50;;;3.10;100.00
51452;BME280;37521;52.020;-1.740;2023-12-07T05:38:33;99171.66;;;3.10;100.00
51452;BME280;37521;52.020;-1.740;2023-12-07T05:41:02;99173.25;;;3.14;100.00
51452;BME280;37521;52.020;-1.740;2023-12-07T05:43:31;99154.13;;;3.15;100.00
51452;BME280;37521;52.020;-1.740;2023-12-07T05:46:01;99148.00;;;3.16;100.00
51452;BME280;37521;52.020;-1.740;2023-12-07T05:48:31;99154.03;;;3.18;100.00
51452;BME280;37521;52.020;-1.740;2023-12-07T05:51:01;99151.38;;;3.20;100.00
51452;BME280;37521;52.020;-1.740;2023-12-07T05:53:30;99145.28;;;3.19;100.00
51452;BME280;37521;52.020;-1.740;2023-12-07T05:56:00;99151.22;;;3.24;100.00
51452;BME280;37521;52.020;-1.740;2023-12-07T05:58:31;99139.91;;;3.25;100.00
51452;BME280;37521;52.020;-1.740;2023-12-07T06:01:00;99140.69;;;3.27;100.00
51452;BME280;37521;52.020;-1.740;2023-12-07T06:03:31;99144.19;;;3.28;100.00
51452;BME280;37521;52.020;-1.740;2023-12-07T06:06:00;99136.31;;;3.30;100.00
51452;BME280;37521;52.020;-1.740;2023-12-07T06:08:28;99129.38;;;3.28;100.00
51452;BME280;37521;52.020;-1.740;2023-12-07T06:10:57;99129.38;;;3.28;100.00
51452;BME280;37521;52.020;-1.740;2023-12-07T06:13:26;99119.75;;;3.31;100.00
51452;BME280;37521;52.020;-1.740;2023-12-07T06:15:54;99113.53;;;3.35;100.00
51452;BME280;37521;52.020;-1.740;2023-12-07T06:18:23;99115.25;;;3.36;100.00
51452;BME280;37521;52.020;-1.740;2023-12-07T06:20:53;99115.25;;;3.36;100.00
51452;BME280;37521;52.020;-1.740;2023-12-07T06:23:22;99113.44;;;3.38;100.00
51452;BME280;37521;52.020;-1.740;2023-12-07T06:25:51;99116.84;;;3.40;100.00
51452;BME280;37521;52.020;-1.740;2023-12-07T06:28:19;99114.19;;;3.41;100.00
51452;BME280;37521;52.020;-1.740;2023-12-07T06:30:48;99106.31;;;3.43;100.00
51452;BME280;37521;52.020;-1.740;2023-12-07T06:33:17;99110.63;;;3.44;100.00
51452;BME280;37521;52.020;-1.740;2023-12-07T06:35:45;99111.44;;;3.46;100.00
51452;BME280;37521;52.020;-1.740;2023-12-07T06:38:16;99107.03;;;3.48;100.00
51452;BME280;37521;52.020;-1.740;2023-12-07T06:40:49;99093.97;;;3.48;100.00
51452;BME280;37521;52.020;-1.740;2023-12-07T06:43:17;99101.69;;;3.51;100.00
51452;BME280;37521;52.020;-1.740;2023-12-07T06:45:46;99107.72;;;3.53;100.00
51452;BME280;37521;52.020;-1.740;2023-12-07T06:48:15;99098.97;;;3.54;100.00
51452;BME280;37521;52.020;-1.740;2023-12-07T06:50:44;99097.19;;;3.56;100.00
51452;BME280;37521;52.020;-1.740;2023-12-07T06:53:13;99102.28;;;3.59;100.00
51452;BME280;37521;52.020;-1.740;2023-12-07T06:55:44;99096.94;;;3.64;100.00
51452;BME280;37521;52.020;-1.740;2023-12-07T06:58:13;99086.50;;;3.64;100.00
51452;BME280;37521;52.020;-1.740;2023-12-07T07:00:41;99076.13;;;3.62;100.00
51452;BME280;37521;52.020;-1.740;2023-12-07T07:03:10;99072.69;;;3.60;100.00
51452;BME280;37521;52.020;-1.740;2023-12-07T07:05:39;99070.06;;;3.60;100.00
51452;BME280;37521;52.020;-1.740;2023-12-07T07:08:08;99069.19;;;3.61;100.00
51452;BME280;37521;52.020;-1.740;2023-12-07T07:10:36;99057.84;;;3.62;100.00
51452;BME280;37521;52.020;-1.740;2023-12-07T07:13:07;99055.22;;;3.62;100.00
51452;BME280;37521;52.020;-1.740;2023-12-07T07:15:35;99046.50;;;3.63;100.00
51452;BME280;37521;52.020;-1.740;2023-12-07T07:18:04;99046.50;;;3.63;100.00
51452;BME280;37521;52.020;-1.740;2023-12-07T07:20:34;99049.09;;;3.63;100.00
51452;BME280;37521;52.020;-1.740;2023-12-07T07:23:02;99033.38;;;3.65;100.00
51452;BME280;37521;52.020;-1.740;2023-12-07T07:25:31;99033.44;;;3.63;100.00
51452;BME280;37521;52.020;-1.740;2023-12-07T07:28:00;99031.69;;;3.64;100.00
51452;BME280;37521;52.020;-1.740;2023-12-07T07:30:32;99033.31;;;3.66;100.00
51452;BME280;37521;52.020;-1.740;2023-12-07T07:33:01;99045.53;;;3.66;100.00
51452;BME280;37521;52.020;-1.740;2023-12-07T07:35:29;99040.31;;;3.66;100.00
51452;BME280;37521;52.020;-1.740;2023-12-07T07:37:58;99039.44;;;3.65;100.00
51452;BME280;37521;52.020;-1.740;2023-12-07T07:40:27;99038.53;;;3.66;100.00
51452;BME280;37521;52.020;-1.740;2023-12-07T07:42:55;99027.19;;;3.67;100.00
51452;BME280;37521;52.020;-1.740;2023-12-07T07:45:24;99037.63;;;3.67;100.00
51452;BME280;37521;52.020;-1.740;2023-12-07T07:47:54;99044.59;;;3.68;100.00
51452;BME280;37521;52.020;-1.740;2023-12-07T07:50:23;99037.53;;;3.70;100.00
51452;BME280;37521;52.020;-1.740;2023-12-07T07:52:52;99035.84;;;3.69;100.00
51452;BME280;37521;52.020;-1.740;2023-12-07T07:55:21;99032.22;;;3.73;100.00
51452;BME280;37521;52.020;-1.740;2023-12-07T07:57:50;99027.09;;;3.70;100.00
51452;BME280;37521;52.020;-1.740;2023-12-07T08:00:19;99034.03;;;3.71;100.00
51452;BME280;37521;52.020;-1.740;2023-12-07T08:02:48;99027.84;;;3.74;100.00
51452;BME280;37521;52.020;-1.740;2023-12-07T08:05:18;99033.06;;;3.74;100.00
51452;BME280;37521;52.020;-1.740;2023-12-07T08:07:47;99013.91;;;3.75;100.00
51452;BME280;37521;52.020;-1.740;2023-12-07T08:10:16;99009.53;;;3.75;100.00
51452;BME280;37521;52.020;-1.740;2023-12-07T08:12:45;99003.41;;;3.76;100.00
51452;BME280;37521;52.020;-1.740;2023-12-07T08:15:14;99000.78;;;3.76;100.00
51452;BME280;37521;52.020;-1.740;2023-12-07T08:17:43;98990.34;;;3.76;100.00
51452;BME280;37521;52.020;-1.740;2023-12-07T08:20:11;98993.75;;;3.78;100.00
51452;BME280;37521;52.020;-1.740;2023-12-07T08:22:43;98997.16;;;3.80;100.00
51452;BME280;37521;52.020;-1.740;2023-12-07T08:25:12;98990.22;;;3.79;100.00
51452;BME280;37521;52.020;-1.740;2023-12-07T08:27:41;98991.06;;;3.80;100.00
51452;BME280;37521;52.020;-1.740;2023-12-07T08:30:11;98983.22;;;3.81;100.00
51452;BME280;37521;52.020;-1.740;2023-12-07T08:32:40;98985.75;;;3.83;100.00
51452;BME280;37521;52.020;-1.740;2023-12-07T08:35:09;98969.13;;;3.86;100.00
51452;BME280;37521;52.020;-1.740;2023-12-07T08:37:38;98974.34;;;3.86;100.00
51452;BME280;37521;52.020;-1.740;2023-12-07T08:40:09;98975.09;;;3.89;100.00
51452;BME280;37521;52.020;-1.740;2023-12-07T08:42:45;98964.59;;;3.91;100.00
51452;BME280;37521;52.020;-1.740;2023-12-07T08:45:17;98956.75;;;3.91;100.00
51452;BME280;37521;52.020;-1.740;2023-12-07T08:47:45;98954.94;;;3.93;100.00
51452;BME280;37521;52.020;-1.740;2023-12-07T08:50:14;98941.81;;;3.94;100.00
51452;BME280;37521;52.020;-1.740;2023-12-07T08:52:43;98928.72;;;3.96;100.00
51452;BME280;37521;52.020;-1.740;2023-12-07T08:55:23;98928.72;;;3.96;100.00
51452;BME280;37521;52.020;-1.740;2023-12-07T08:57:53;98932.13;;;3.98;100.00
51452;BME280;37521;52.020;-1.740;2023-12-07T09:00:21;98920.75;;;3.99;100.00
51452;BME280;37521;52.020;-1.740;2023-12-07T09:02:52;98918.06;;;4.02;100.00
51452;BME280;37521;52.020;-1.740;2023-12-07T09:05:21;98926.69;;;4.04;100.00
51452;BME280;37521;52.020;-1.740;2023-12-07T09:07:50;98913.63;;;4.04;100.00
51452;BME280;37521;52.020;-1.740;2023-12-07T09:10:20;98919.63;;;4.06;100.00
51452;BME280;37521;52.020;-1.740;2023-12-07T09:12:50;98895.34;;;4.04;100.00
51452;BME280;37521;52.020;-1.740;2023-12-07T09:15:19;98894.50;;;4.03;100.00
51452;BME280;37521;52.020;-1.740;2023-12-07T09:17:48;98896.19;;;4.04;100.00
51452;BME280;37521;52.020;-1.740;2023-12-07T09:20:17;98904.81;;;4.06;100.00
51452;BME280;37521;52.020;-1.740;2023-12-07T09:22:46;98892.66;;;4.05;100.00
51452;BME280;37521;52.020;-1.740;2023-12-07T09:25:16;98883.06;;;4.06;100.00
51452;BME280;37521;52.020;-1.740;2023-12-07T09:27:45;98896.06;;;4.07;100.00
51452;BME280;37521;52.020;-1.740;2023-12-07T09:30:16;98888.19;;;4.09;100.00
51452;BME280;37521;52.020;-1.740;2023-12-07T09:32:45;98876.88;;;4.08;100.00
51452;BME280;37521;52.020;-1.740;2023-12-07T09:35:14;98869.94;;;4.07;100.00
51452;BME280;37521;52.020;-1.740;2023-12-07T09:37:48;98868.25;;;4.06;100.00
51452;BME280;37521;52.020;-1.740;2023-12-07T09:40:18;98872.59;;;4.06;100.00
51452;BME280;37521;52.020;-1.740;2023-12-07T09:42:49;98859.56;;;4.06;100.00
51452;BME280;37521;52.020;-1.740;2023-12-07T09:45:20;98861.31;;;4.05;100.00
51452;BME280;37521;52.020;-1.740;2023-12-07T09:47:52;98870.91;;;4.05;100.00
51452;BME280;37521;52.020;-1.740;2023-12-07T09:50:22;98866.59;;;4.04;100.00
51452;BME280;37521;52.020;-1.740;2023-12-07T09:52:52;98864.84;;;4.04;100.00
51452;BME280;37521;52.020;-1.740;2023-12-07T09:55:34;98855.31;;;4.03;100.00
51452;BME280;37521;52.020;-1.740;2023-12-07T09:58:05;98852.69;;;4.03;100.00
51452;BME280;37521;52.020;-1.740;2023-12-07T10:00:37;98844.94;;;4.02;100.00
51452;BME280;37521;52.020;-1.740;2023-12-07T10:03:08;98835.34;;;4.02;100.00
51452;BME280;37521;52.020;-1.740;2023-12-07T10:05:57;98824.03;;;4.02;100.00
51452;BME280;37521;52.020;-1.740;2023-12-07T10:08:28;98815.38;;;4.00;100.00
51452;BME280;37521;52.020;-1.740;2023-12-07T10:11:05;98806.63;;;4.01;100.00
51452;BME280;37521;52.020;-1.740;2023-12-07T10:13:35;98808.47;;;3.99;100.00
51452;BME280;37521;52.020;-1.740;2023-12-07T10:16:08;98811.06;;;3.99;100.00
51452;BME280;37521;52.020;-1.740;2023-12-07T10:18:37;98799.78;;;3.98;100.00
51452;BME280;37521;52.020;-1.740;2023-12-07T10:21:11;98800.75;;;3.96;100.00
51452;BME280;37521;52.020;-1.740;2023-12-07T10:23:41;98798.16;;;3.96;100.00
51452;BME280;37521;52.020;-1.740;2023-12-07T10:26:17;98806.00;;;3.96;100.00
51452;BME280;37521;52.020;-1.740;2023-12-07T10:28:54;98812.00;;;3.98;100.00
51452;BME280;37521;52.020;-1.740;2023-12-07T10:31:31;98802.41;;;3.98;100.00
51452;BME280;37521;52.020;-1.740;2023-12-07T10:34:04;98799.06;;;3.95;100.00
51452;BME280;37521;52.020;-1.740;2023-12-07T10:36:34;98777.28;;;3.94;100.00
51452;BME280;37521;52.020;-1.740;2023-12-07T10:39:02;98788.63;;;3.95;100.00
51452;BME280;37521;52.020;-1.740;2023-12-07T10:41:43;98772.13;;;3.93;100.00
51452;BME280;37521;52.020;-1.740;2023-12-07T10:44:13;98782.59;;;3.93;100.00
51452;BME280;37521;52.020;-1.740;2023-12-07T10:46:44;98777.38;;;3.93;100.00
51452;BME280;37521;52.020;-1.740;2023-12-07T10:49:17;98782.59;;;3.93;100.00
51452;BME280;37521;52.020;-1.740;2023-12-07T10:52:04;98779.06;;;3.94;100.00
51452;BME280;37521;52.020;-1.740;2023-12-07T10:54:50;98787.72;;;3.96;100.00
51452;BME280;37521;52.020;-1.740;2023-12-07T10:57:23;98770.38;;;3.93;100.00
51452;BME280;37521;52.020;-1.740;2023-12-07T10:59:54;98778.22;;;3.93;100.00
51452;BME280;37521;52.020;-1.740;2023-12-07T11:02:27;98764.31;;;3.93;100.00
51452;BME280;37521;52.020;-1.740;2023-12-07T11:04:57;98765.22;;;3.92;100.00
51452;BME280;37521;52.020;-1.740;2023-12-07T11:07:38;98769.59;;;3.91;100.00
51452;BME280;37521;52.020;-1.740;2023-12-07T11:10:14;98766.06;;;3.92;100.00
51452;BME280;37521;52.020;-1.740;2023-12-07T11:12:49;98785.19;;;3.93;100.00
51452;BME280;37521;52.020;-1.740;2023-12-07T11:15:19;98777.38;;;3.93;100.00
51452;BME280;37521;52.020;-1.740;2023-12-07T11:17:54;98772.28;;;3.90;100.00
51452;BME280;37521;52.020;-1.740;2023-12-07T11:20:32;98772.28;;;3.90;100.00
51452;BME280;37521;52.020;-1.740;2023-12-07T11:23:08;98761.84;;;3.90;100.00
51452;BME280;37521;52.020;-1.740;2023-12-07T11:25:37;98754.91;;;3.89;100.00
51452;BME280;37521;52.020;-1.740;2023-12-07T11:28:06;98750.56;;;3.88;100.00
51452;BME280;37521;52.020;-1.740;2023-12-07T11:30:37;98742.63;;;3.91;100.00
51452;BME280;37521;52.020;-1.740;2023-12-07T11:33:09;98745.25;;;3.91;100.00
51452;BME280;37521;52.020;-1.740;2023-12-07T11:36:04;98733.03;;;3.91;100.00
51452;BME280;37521;52.020;-1.740;2023-12-07T11:38:33;98717.50;;;3.88;100.00
51452;BME280;37521;52.020;-1.740;2023-12-07T11:41:02;98717.44;;;3.90;100.00
51452;BME280;37521;52.020;-1.740;2023-12-07T11:43:41;98696.63;;;3.88;100.00
51452;BME280;37521;52.020;-1.740;2023-12-07T11:46:14;98692.25;;;3.89;100.00
51452;BME280;37521;52.020;-1.740;2023-12-07T11:48:48;98686.09;;;3.90;100.00
51452;BME280;37521;52.020;-1.740;2023-12-07T11:51:18;98682.56;;;3.91;100.00
51452;BME280;37521;52.020;-1.740;2023-12-07T11:53:46;98667.69;;;3.93;100.00
51452;BME280;37521;52.020;-1.740;2023-12-07T11:56:17;98674.59;;;3.94;100.00
51452;BME280;37521;52.020;-1.740;2023-12-07T11:58:49;98662.53;;;3.91;100.00
51452;BME280;37521;52.020;-1.740;2023-12-07T12:01:20;98667.03;;;3.88;100.00
51452;BME280;37521;52.020;-1.740;2023-12-07T12:03:50;98663.69;;;3.84;100.00
51452;BME280;37521;52.020;-1.740;2023-12-07T12:06:19;98653.44;;;3.79;100.00
51452;BME280;37521;52.020;-1.740;2023-12-07T12:08:48;98645.66;;;3.78;100.00
51452;BME280;37521;52.020;-1.740;2023-12-07T12:11:17;98642.22;;;3.77;100.00
51452;BME280;37521;52.020;-1.740;2023-12-07T12:13:46;98632.75;;;3.75;100.00
51452;BME280;37521;52.020;-1.740;2023-12-07T12:16:17;98622.34;;;3.73;100.00
51452;BME280;37521;52.020;-1.740;2023-12-07T12:18:47;98612.81;;;3.72;100.00
51452;BME280;37521;52.020;-1.740;2023-12-07T12:21:17;98603.16;;;3.74;100.00
51452;BME280;37521;52.020;-1.740;2023-12-07T12:23:47;98590.09;;;3.74;100.00
51452;BME280;37521;52.020;-1.740;2023-12-07T12:26:16;98570.94;;;3.75;100.00
51452;BME280;37521;52.020;-1.740;2023-12-07T12:28:46;98573.50;;;3.77;100.00
51452;BME280;37521;52.020;-1.740;2023-12-07T12:31:15;98569.13;;;3.77;100.00
51452;BME280;37521;52.020;-1.740;2023-12-07T12:33:44;98565.59;;;3.78;100.00
51452;BME280;37521;52.020;-1.740;2023-12-07T12:36:13;98554.31;;;3.78;100.00
51452;BME280;37521;52.020;-1.740;2023-12-07T12:38:46;98563.91;;;3.77;100.00
51452;BME280;37521;52.020;-1.740;2023-12-07T12:41:18;98553.44;;;3.77;100.00
51452;BME280;37521;52.020;-1.740;2023-12-07T12:43:47;98558.69;;;3.77;100.00
51452;BME280;37521;52.020;-1.740;2023-12-07T12:46:16;98547.31;;;3.78;100.00
51452;BME280;37521;52.020;-1.740;2023-12-07T12:48:55;98542.16;;;3.77;100.00
51452;BME280;37521;52.020;-1.740;2023-12-07T12:51:25;98535.25;;;3.76;100.00
51452;BME280;37521;52.020;-1.740;2023-12-07T12:53:58;98524.00;;;3.74;100.00
51452;BME280;37521;52.020;-1.740;2023-12-07T12:56:27;98511.94;;;3.71;100.00
51452;BME280;37521;52.020;-1.740;2023-12-07T12:58:56;98521.53;;;3.71;100.00
51452;BME280;37521;52.020;-1.740;2023-12-07T13:01:31;98509.47;;;3.68;100.00
51452;BME280;37521;52.020;-1.740;2023-12-07T13:04:01;98491.25;;;3.67;100.00
51452;BME280;37521;52.020;-1.740;2023-12-07T13:06:30;98487.94;;;3.63;100.00